Terminal Aerodrome Forecast
Issued by NWS Knoxville/Tri Cities, TN

Home | Current Version | Previous Version | Text Only | Print | Product List | Glossary On
Versions: 1 2 3 4 5 6 7 8 9 10 11 12 13 14 15 16 17 18 19 20 21
000
FTUS44 KMRX 242320
TAFTRI
TAF
KTRI 242320Z 2500/2524 VRB02KT P6SM SCT200
     FM250800 00000KT 4SM BR SCT002
      TEMPO 2508/2512 1/2SM FG BKN002
     FM251400 28003KT P6SM SCT150=

USA.gov is the U.S. government's official web portal to all federal, state and local government web resources and services.